Time;durP1;ratioP1;P1;durP2;ratioP2;P2;SDS_P1;SDS_P2;PMS_P1;PMS_P2;Temp;Humidity;BMP_temperature;BMP_pressure;BME280_temperature;BME280_humidity;BME280_pressure;Samples;Min_cycle;Max_cycle;Signal;HPM_P1;HPM_P2
2022/11/28 00:02:18;;;;;;;506.00;217.82;;;4.00;99.90;;;;;;5096610;28;20495;-61
2022/11/28 00:04:44;;;;;;;481.65;202.93;;;4.10;99.90;;;;;;5114792;28;20031;-62
2022/11/28 00:07:11;;;;;;;410.98;184.60;;;4.20;99.90;;;;;;5114644;28;20034;-61
2022/11/28 00:09:37;;;;;;;567.42;267.50;;;4.20;99.90;;;;;;5114649;28;20095;-61
2022/11/28 00:12:03;;;;;;;545.35;256.30;;;4.10;99.90;;;;;;5114788;28;20118;-62
2022/11/28 00:14:29;;;;;;;445.58;213.65;;;4.00;99.90;;;;;;5114674;28;20450;-62
2022/11/28 00:16:54;;;;;;;445.35;209.27;;;4.10;99.90;;;;;;5114894;28;20023;-62
2022/11/28 00:19:20;;;;;;;450.45;214.18;;;4.10;99.90;;;;;;5130961;27;20389;-62
2022/11/28 00:21:46;;;;;;;477.15;218.38;;;4.00;99.90;;;;;;5139046;27;20533;-62
2022/11/28 00:24:12;;;;;;;431.67;209.50;;;3.90;99.90;;;;;;5139285;27;20377;-62
2022/11/28 00:26:40;;;;;;;402.17;199.68;;;3.80;99.90;;;;;;5139215;27;20541;-62
2022/11/28 00:29:07;;;;;;;458.17;217.63;;;3.70;99.90;;;;;;5139176;27;20072;-61
2022/11/28 00:31:41;;;;;;;429.27;208.00;;;3.50;99.90;;;;;;5139205;27;20111;-62
2022/11/28 00:34:11;;;;;;;416.58;195.23;;;3.50;99.90;;;;;;5138886;27;20035;-61
2022/11/28 00:36:37;;;;;;;441.17;184.40;;;3.60;99.90;;;;;;5139080;27;20054;-62
2022/11/28 00:39:03;;;;;;;406.58;176.27;;;3.60;99.90;;;;;;5138808;27;20066;-61
2022/11/28 00:41:32;;;;;;;371.50;167.93;;;3.50;99.90;;;;;;5138862;27;20441;-62
2022/11/28 00:43:59;;;;;;;378.95;173.38;;;3.50;99.90;;;;;;5138896;27;20320;-62
2022/11/28 00:46:25;;;;;;;384.75;177.52;;;3.60;99.90;;;;;;5138660;27;20019;-62
2022/11/28 00:48:51;;;;;;;393.05;182.90;;;3.50;99.90;;;;;;5120388;27;20092;-61
2022/11/28 00:51:23;;;;;;;338.80;151.32;;;3.60;99.90;;;;;;5120174;27;20027;-62
2022/11/28 00:53:51;;;;;;;281.92;127.82;;;3.60;99.90;;;;;;5138534;27;20019;-61
2022/11/28 00:56:20;;;;;;;277.90;128.35;;;3.70;99.90;;;;;;5138347;27;20110;-61
2022/11/28 00:58:48;;;;;;;267.80;126.72;;;3.70;99.90;;;;;;5138685;27;20027;-61
2022/11/28 01:01:17;;;;;;;305.35;138.75;;;3.60;99.90;;;;;;5138495;27;20389;-61
2022/11/28 01:03:44;;;;;;;274.75;128.23;;;3.60;99.90;;;;;;5138378;27;20038;-62
2022/11/28 01:06:11;;;;;;;256.23;122.63;;;3.40;99.90;;;;;;5138262;27;20038;-62
2022/11/28 01:08:37;;;;;;;206.30;101.78;;;3.50;99.90;;;;;;5138298;27;20029;-62
2022/11/28 01:11:09;;;;;;;189.55;92.20;;;3.60;99.90;;;;;;5138413;27;20094;-62
2022/11/28 01:13:35;;;;;;;179.80;90.38;;;3.70;99.90;;;;;;5138186;27;20027;-62
2022/11/28 01:16:01;;;;;;;179.05;85.65;;;3.60;99.90;;;;;;5138493;27;20046;-62
2022/11/28 01:18:27;;;;;;;169.82;79.10;;;3.50;99.90;;;;;;5128924;27;20028;-62
2022/11/28 01:20:53;;;;;;;195.45;93.38;;;3.50;99.90;;;;;;5117561;28;20020;-62
2022/11/28 01:23:19;;;;;;;250.18;112.55;;;3.50;99.90;;;;;;5117574;28;20031;-61
2022/11/28 01:25:45;;;;;;;248.88;109.43;;;3.60;99.90;;;;;;5117419;28;20476;-61
2022/11/28 01:28:11;;;;;;;256.45;114.65;;;3.50;99.90;;;;;;5117576;28;20088;-62
2022/11/28 01:30:37;;;;;;;238.05;105.35;;;3.40;99.90;;;;;;5117148;28;20366;-62
2022/11/28 01:33:03;;;;;;;322.88;136.32;;;3.40;99.90;;;;;;5116053;28;20055;-62
2022/11/28 01:35:28;;;;;;;313.75;136.93;;;3.40;99.90;;;;;;5117352;28;20020;-62
2022/11/28 01:37:54;;;;;;;336.17;140.10;;;3.50;99.90;;;;;;5117150;28;20027;-61
2022/11/28 01:40:20;;;;;;;348.38;143.88;;;3.60;99.90;;;;;;5117231;28;20487;-62
2022/11/28 01:42:47;;;;;;;296.63;132.68;;;3.70;99.90;;;;;;5098781;28;20049;-62
2022/11/28 01:45:21;;;;;;;309.95;139.38;;;3.60;99.90;;;;;;5116939;28;20392;-62
2022/11/28 01:47:50;;;;;;;300.38;142.18;;;3.70;99.90;;;;;;5117069;28;20023;-61
2022/11/28 01:50:16;;;;;;;276.80;129.05;;;3.70;99.90;;;;;;5116912;28;20031;-62
2022/11/28 01:52:47;;;;;;;278.90;132.60;;;3.70;99.90;;;;;;5116950;28;20110;-61
2022/11/28 01:55:19;;;;;;;300.08;137.77;;;3.70;99.90;;;;;;5116857;28;20019;-62
2022/11/28 01:57:44;;;;;;;435.63;202.30;;;3.70;99.90;;;;;;5116716;28;20028;-61
2022/11/28 02:00:17;;;;;;;347.05;158.18;;;3.70;99.90;;;;;;5116734;28;20024;-62
2022/11/28 02:02:59;;;;;;;292.17;136.30;;;3.70;99.90;;;;;;5116856;28;20036;-61
2022/11/28 02:05:25;;;;;;;245.85;116.07;;;3.70;99.90;;;;;;5116689;28;20028;-62
2022/11/28 02:07:51;;;;;;;192.45;92.30;;;3.80;99.90;;;;;;5116510;28;20047;-62
2022/11/28 02:10:25;;;;;;;163.55;76.97;;;3.90;99.90;;;;;;5116566;28;20023;-61
2022/11/28 02:13:09;;;;;;;161.90;75.97;;;3.90;99.90;;;;;;5116373;28;20058;-62
2022/11/28 02:16:13;;;;;;;150.52;69.75;;;3.90;99.90;;;;;;5116697;28;20085;-62
2022/11/28 02:19:04;;;;;;;169.90;77.97;;;3.90;99.90;;;;;;5105822;28;20024;-62
2022/11/28 02:21:46;;;;;;;193.15;93.95;;;3.80;99.90;;;;;;5096159;28;20109;-62
2022/11/28 02:24:49;;;;;;;147.48;69.13;;;3.70;99.90;;;;;;5095973;28;20039;-61
2022/11/28 02:27:18;;;;;;;146.77;71.82;;;3.80;99.90;;;;;;5095754;28;20570;-61
2022/11/28 02:30:11;;;;;;;153.80;74.82;;;3.80;99.90;;;;;;5095804;28;20505;-62
2022/11/28 02:32:58;;;;;;;154.07;72.07;;;3.60;99.90;;;;;;5095571;28;20035;-61
2022/11/28 02:35:43;;;;;;;157.48;77.82;;;3.40;99.90;;;;;;5095950;28;20024;-61
2022/11/28 02:38:08;;;;;;;170.85;78.30;;;3.30;99.90;;;;;;5095671;28;20136;-62
2022/11/28 02:41:00;;;;;;;161.25;81.25;;;3.30;99.90;;;;;;5095674;28;20028;-62
2022/11/28 02:43:49;;;;;;;180.80;86.32;;;3.20;99.90;;;;;;5095142;28;20170;-62
2022/11/28 02:46:27;;;;;;;175.02;84.32;;;3.20;99.90;;;;;;5115747;28;20024;-62
2022/11/28 02:49:10;;;;;;;163.23;76.30;;;3.20;99.90;;;;;;5115891;28;20027;-62
2022/11/28 02:51:47;;;;;;;135.25;64.82;;;3.10;99.90;;;;;;5115799;28;20039;-61
2022/11/28 02:54:16;;;;;;;155.60;68.57;;;3.10;99.90;;;;;;5115722;28;20027;-61
2022/11/28 02:56:53;;;;;;;141.52;65.85;;;3.00;99.90;;;;;;5115646;28;20015;-62
2022/11/28 02:59:37;;;;;;;143.25;66.40;;;2.90;99.90;;;;;;5115795;28;20102;-61
2022/11/28 03:02:27;;;;;;;137.55;64.03;;;2.80;99.90;;;;;;5115526;28;20400;-62
2022/11/28 03:05:26;;;;;;;148.35;68.03;;;2.70;99.90;;;;;;5115447;28;20053;-62
2022/11/28 03:08:40;;;;;;;140.10;66.82;;;2.90;99.90;;;;;;5115588;28;20469;-61
2022/11/28 03:11:24;;;;;;;115.82;54.95;;;3.00;99.90;;;;;;5024929;28;20034;-61
2022/11/28 03:14:05;;;;;;;102.70;49.03;;;3.10;99.90;;;;;;5115562;28;20063;-62
2022/11/28 03:16:44;;;;;;;123.05;53.88;;;3.10;99.90;;;;;;5115248;28;20032;-62
2022/11/28 03:19:37;;;;;;;109.93;49.67;;;3.20;99.90;;;;;;5115260;28;20027;-62
2022/11/28 03:22:27;;;;;;;110.55;51.85;;;3.00;99.90;;;;;;5097264;28;20112;-62
2022/11/28 03:25:04;;;;;;;116.80;54.17;;;3.00;99.90;;;;;;5115237;28;20023;-62
2022/11/28 03:27:56;;;;;;;131.38;61.00;;;3.10;99.90;;;;;;5115132;28;20081;-62
2022/11/28 03:30:42;;;;;;;127.82;60.28;;;3.00;99.90;;;;;;5110159;28;20031;-62
2022/11/28 03:33:09;;;;;;;129.82;53.78;;;2.80;99.90;;;;;;5114962;28;20035;-62
2022/11/28 03:35:41;;;;;;;127.90;54.22;;;2.90;99.90;;;;;;5115144;28;20027;-61
2022/11/28 03:38:14;;;;;;;129.50;59.38;;;2.90;99.90;;;;;;5115142;28;20020;-61
2022/11/28 03:40:44;;;;;;;132.30;55.35;;;3.10;99.90;;;;;;5115193;28;20020;-62
2022/11/28 03:43:18;;;;;;;116.15;51.63;;;3.00;99.90;;;;;;5115145;28;20039;-62
2022/11/28 03:45:48;;;;;;;111.78;49.38;;;3.10;99.90;;;;;;5114765;28;20023;-61
2022/11/28 03:48:39;;;;;;;111.85;47.97;;;3.10;99.90;;;;;;5114915;28;20040;-62
2022/11/28 03:51:08;;;;;;;;;;;2.90;99.90;;;;;;5104025;28;20044;-62
2022/11/28 03:54:00;;;;;;;118.63;49.63;;;2.80;99.90;;;;;;5115001;28;19983;-61
2022/11/28 03:56:38;;;;;;;114.00;48.67;;;2.90;99.90;;;;;;5118473;28;20034;-61
2022/11/28 03:59:12;;;;;;;104.03;44.22;;;2.70;99.90;;;;;;5119107;28;20028;-62
2022/11/28 04:02:03;;;;;;;94.30;40.78;;;2.60;99.90;;;;;;5119191;28;20019;-62
2022/11/28 04:04:35;;;;;;;92.13;41.10;;;2.60;99.90;;;;;;5119043;28;20077;-62
2022/11/28 04:07:25;;;;;;;89.90;41.13;;;2.60;99.90;;;;;;5118947;28;20168;-62
2022/11/28 04:09:59;;;;;;;93.00;41.75;;;2.70;99.90;;;;;;5118910;28;20035;-62
2022/11/28 04:12:34;;;;;;;118.68;49.83;;;2.50;99.90;;;;;;5119046;28;20058;-61
2022/11/28 04:15:05;;;;;;;116.10;50.35;;;2.50;99.90;;;;;;5118711;28;20036;-62
2022/11/28 04:17:37;;;;;;;109.03;47.05;;;2.30;99.90;;;;;;5117618;28;20024;-62
2022/11/28 04:20:15;;;;;;;119.28;49.10;;;2.20;99.90;;;;;;5098327;28;20039;-62
2022/11/28 04:22:49;;;;;;;154.60;64.65;;;2.10;99.90;;;;;;5098258;28;20020;-62
2022/11/28 04:25:18;;;;;;;156.98;67.20;;;2.20;99.90;;;;;;5098168;28;20431;-62
2022/11/28 04:28:00;;;;;;;169.13;67.85;;;2.00;99.90;;;;;;5118598;28;20080;-62
2022/11/28 04:30:26;;;;;;;182.75;73.70;;;2.00;99.90;;;;;;5118488;28;20034;-61
2022/11/28 04:32:58;;;;;;;142.30;60.88;;;1.90;99.90;;;;;;5118369;28;20024;-61
2022/11/28 04:35:37;;;;;;;131.40;54.60;;;1.60;99.90;;;;;;5118534;28;20445;-61
2022/11/28 04:38:05;;;;;;;115.82;47.85;;;1.60;99.90;;;;;;5118439;28;20110;-62
2022/11/28 04:40:37;;;;;;;115.43;48.22;;;1.60;99.90;;;;;;5118321;28;20020;-61
2022/11/28 04:43:15;;;;;;;122.20;49.20;;;1.60;99.90;;;;;;5118382;28;20039;-61
2022/11/28 04:45:46;;;;;;;108.05;45.00;;;1.60;99.90;;;;;;5118083;28;20038;-62
2022/11/28 04:48:12;;;;;;;115.13;48.00;;;1.50;99.90;;;;;;5118056;28;20027;-61
2022/11/28 04:51:01;;;;;;;118.25;49.95;;;1.50;99.90;;;;;;5118345;28;20053;-61
2022/11/28 04:53:49;;;;;;;125.93;53.38;;;1.40;99.90;;;;;;5118014;28;20049;-61
2022/11/28 04:56:30;;;;;;;206.88;86.88;;;1.40;99.90;;;;;;5117975;28;20030;-61
2022/11/28 04:58:57;;;;;;;179.82;77.13;;;1.30;99.90;;;;;;5117913;28;20051;-62
2022/11/28 05:01:26;;;;;;;150.65;63.50;;;1.30;99.90;;;;;;5117871;28;20370;-61
2022/11/28 05:03:53;;;;;;;144.25;58.92;;;1.40;99.90;;;;;;5117919;28;20392;-62
2022/11/28 05:06:28;;;;;;;138.13;56.22;;;1.30;99.90;;;;;;5117536;28;20062;-62
2022/11/28 05:08:54;;;;;;;130.95;53.17;;;1.30;99.90;;;;;;5117613;28;20032;-62
2022/11/28 05:11:20;;;;;;;132.20;54.92;;;1.40;99.90;;;;;;5117859;28;20144;-62
2022/11/28 05:13:46;;;;;;;135.38;53.67;;;1.50;99.90;;;;;;5117523;28;20063;-62
2022/11/28 05:16:13;;;;;;;121.20;50.60;;;1.40;99.90;;;;;;5136316;27;20393;-62
2022/11/28 05:18:39;;;;;;;118.43;50.55;;;1.30;99.90;;;;;;5138142;27;20027;-61
2022/11/28 05:21:07;;;;;;;124.35;53.63;;;1.20;99.90;;;;;;5119600;27;20031;-61
2022/11/28 05:23:36;;;;;;;127.35;53.15;;;1.10;99.90;;;;;;5138291;27;20111;-61
2022/11/28 05:26:07;;;;;;;117.20;49.30;;;1.00;99.90;;;;;;5137988;27;20027;-62
2022/11/28 05:28:33;;;;;;;122.15;52.70;;;0.90;99.90;;;;;;5137830;27;20748;-61
2022/11/28 05:31:00;;;;;;;127.90;55.10;;;0.80;99.90;;;;;;5137921;27;20037;-62
2022/11/28 05:33:28;;;;;;;133.65;58.03;;;0.80;99.90;;;;;;5137755;27;20031;-62
2022/11/28 05:35:55;;;;;;;121.13;51.80;;;0.70;99.90;;;;;;5137821;27;20019;-62
2022/11/28 05:38:21;;;;;;;136.20;56.63;;;0.80;99.90;;;;;;5137904;27;20098;-61
2022/11/28 05:40:48;;;;;;;143.68;55.00;;;0.90;99.90;;;;;;5137779;27;20481;-61
2022/11/28 05:43:14;;;;;;;103.50;45.85;;;0.90;99.90;;;;;;5137724;27;20085;-62
2022/11/28 05:45:41;;;;;;;109.50;46.05;;;0.80;99.90;;;;;;5137512;27;20023;-61
2022/11/28 05:48:07;;;;;;;104.40;47.50;;;0.80;99.90;;;;;;5137484;27;20038;-62
2022/11/28 05:50:33;;;;;;;303.10;142.27;;;0.80;99.90;;;;;;5137483;27;20023;-62
2022/11/28 05:52:59;;;;;;;243.05;119.90;;;0.70;99.90;;;;;;5137356;27;20037;-61
2022/11/28 05:55:25;;;;;;;155.90;71.28;;;0.60;99.90;;;;;;5137575;27;20033;-61
2022/11/28 05:57:51;;;;;;;123.38;58.95;;;0.70;99.90;;;;;;5137266;27;20034;-62
2022/11/28 06:00:17;;;;;;;153.65;79.72;;;0.80;99.90;;;;;;5118839;27;20122;-61
2022/11/28 06:02:43;;;;;;;155.95;66.63;;;0.80;99.90;;;;;;5137288;27;20023;-61
2022/11/28 06:05:09;;;;;;;142.30;57.13;;;0.80;99.90;;;;;;5137200;27;20029;-61
2022/11/28 06:07:35;;;;;;;152.57;64.82;;;0.80;99.90;;;;;;5137254;27;20027;-61
2022/11/28 06:10:00;;;;;;;135.63;59.88;;;0.80;99.90;;;;;;5137063;27;20031;-62
2022/11/28 06:12:26;;;;;;;159.50;65.97;;;0.80;99.90;;;;;;5137052;27;20027;-62
2022/11/28 06:14:52;;;;;;;154.25;66.63;;;0.80;99.90;;;;;;5136933;27;20043;-62
2022/11/28 06:17:18;;;;;;;155.73;71.07;;;0.80;99.90;;;;;;5136450;27;20035;-61
2022/11/28 06:19:44;;;;;;;186.45;81.80;;;0.80;99.90;;;;;;5127372;27;20020;-61
2022/11/28 06:22:10;;;;;;;182.25;84.43;;;0.90;99.90;;;;;;5123443;27;20102;-62
2022/11/28 06:24:36;;;;;;;185.43;86.35;;;0.90;99.90;;;;;;5144786;27;20383;-70
2022/11/28 06:27:02;;;;;;;187.98;80.25;;;0.90;99.90;;;;;;5139741;27;20030;-70
2022/11/28 06:29:27;;;;;;;179.48;79.60;;;0.90;99.90;;;;;;5153365;27;20054;-70
2022/11/28 06:31:54;;;;;;;190.57;86.38;;;0.90;99.90;;;;;;5157691;27;20026;-70
2022/11/28 06:34:21;;;;;;;137.32;64.28;;;1.00;99.90;;;;;;5156131;27;20547;-70
2022/11/28 06:36:47;;;;;;;140.25;64.45;;;1.10;99.90;;;;;;5121096;27;20164;-70
2022/11/28 06:39:15;;;;;;;140.73;61.53;;;1.20;99.90;;;;;;5144643;27;20016;-69
2022/11/28 06:41:42;;;;;;;152.10;63.95;;;1.50;99.90;;;;;;5129951;27;20019;-70
2022/11/28 06:44:11;;;;;;;107.72;48.35;;;1.70;99.90;;;;;;5129699;27;20452;-70
2022/11/28 06:46:37;;;;;;;123.32;50.53;;;1.90;99.90;;;;;;5132525;27;20055;-70
2022/11/28 06:49:03;;;;;;;103.90;49.58;;;2.00;99.90;;;;;;5131351;27;20054;-70
2022/11/28 06:51:29;;;;;;;112.05;47.85;;;2.30;99.90;;;;;;5122903;27;20036;-70
2022/11/28 06:53:55;;;;;;;127.18;48.92;;;2.90;99.90;;;;;;5121838;27;20130;-70
2022/11/28 06:56:21;;;;;;;154.70;51.97;;;3.40;99.90;;;;;;5119284;27;20012;-70
2022/11/28 06:58:52;;;;;;;135.50;50.65;;;3.70;99.90;;;;;;5132719;27;20381;-70
2022/11/28 07:01:20;;;;;;;141.07;55.80;;;4.10;99.90;;;;;;5122183;27;20031;-71
2022/11/28 07:03:47;;;;;;;130.00;56.75;;;4.50;99.90;;;;;;5132927;27;20396;-70
2022/11/28 07:06:16;;;;;;;148.13;61.72;;;4.80;99.90;;;;;;5133962;27;20054;-71
2022/11/28 07:08:42;;;;;;;156.50;63.80;;;4.90;99.90;;;;;;5128771;27;20038;-70
2022/11/28 07:11:17;;;;;;;137.23;60.28;;;5.40;99.90;;;;;;5130032;27;20023;-70
2022/11/28 07:13:47;;;;;;;128.52;59.88;;;5.90;99.90;;;;;;5131118;27;20034;-71
2022/11/28 07:16:24;;;;;;;121.10;54.70;;;6.50;99.90;;;;;;5127890;27;20065;-71
2022/11/28 07:18:54;;;;;;;125.83;55.30;;;7.20;99.90;;;;;;5127695;27;20023;-71
2022/11/28 07:21:21;;;;;;;132.82;58.78;;;7.60;99.90;;;;;;5125148;27;20126;-71
2022/11/28 07:23:47;;;;;;;161.35;68.22;;;8.50;99.90;;;;;;5128008;27;20020;-71
2022/11/28 07:26:16;;;;;;;153.13;62.03;;;8.10;99.90;;;;;;5126304;27;20568;-71
2022/11/28 07:28:43;;;;;;;158.10;71.28;;;8.10;99.90;;;;;;5117735;27;20164;-71
2022/11/28 07:31:12;;;;;;;161.25;70.93;;;8.60;99.90;;;;;;5121152;27;20027;-71
2022/11/28 07:33:43;;;;;;;157.02;72.45;;;9.70;97.00;;;;;;5116260;27;20034;-71
2022/11/28 07:36:13;;;;;;;;;;;10.40;92.60;;;;;;5124096;27;20452;-71
2022/11/28 07:38:39;;;;;;;198.50;93.53;;;10.80;90.30;;;;;;5099904;28;19907;-71
2022/11/28 07:41:09;;;;;;;188.82;92.45;;;10.80;86.90;;;;;;5128855;27;20030;-71
2022/11/28 07:43:41;;;;;;;200.38;96.63;;;10.80;87.10;;;;;;5134219;27;20084;-71
2022/11/28 07:46:22;;;;;;;236.70;109.22;;;10.70;83.80;;;;;;5130414;27;20035;-71
2022/11/28 07:48:51;;;;;;;241.38;111.97;;;11.30;82.30;;;;;;5134804;27;20500;-71
2022/11/28 07:51:32;;;;;;;238.57;111.78;;;12.40;76.70;;;;;;5135157;27;20059;-71
2022/11/28 07:54:02;;;;;;;285.73;129.30;;;12.60;70.40;;;;;;5134612;27;20027;-71
2022/11/28 07:56:30;;;;;;;286.63;133.68;;;10.80;76.40;;;;;;5132704;28;20028;-71
2022/11/28 07:58:58;;;;;;;311.90;134.23;;;10.20;80.30;;;;;;5131099;28;20019;-71
2022/11/28 08:01:27;;;;;;;302.73;135.35;;;10.30;87.00;;;;;;5133809;28;20062;-71
2022/11/28 08:03:54;;;;;;;298.30;138.93;;;11.20;80.40;;;;;;5128145;28;20062;-71
2022/11/28 08:06:23;;;;;;;307.95;149.05;;;10.60;80.70;;;;;;5131092;27;20031;-71
2022/11/28 08:08:50;;;;;;;314.55;149.77;;;10.50;82.80;;;;;;5120697;27;20057;-71
2022/11/28 08:11:24;;;;;;;304.63;151.13;;;10.40;86.50;;;;;;5127190;28;20031;-71
2022/11/28 08:13:51;;;;;;;299.77;148.15;;;9.90;85.00;;;;;;5123971;27;20028;-71
2022/11/28 08:16:20;;;;;;;302.92;150.63;;;9.90;88.20;;;;;;5129237;27;20032;-71
2022/11/28 08:18:47;;;;;;;290.70;146.23;;;9.40;91.80;;;;;;5127062;28;20028;-70
2022/11/28 08:21:14;;;;;;;290.83;145.60;;;10.10;88.10;;;;;;5128232;28;20099;-70
2022/11/28 08:23:40;;;;;;;279.45;137.95;;;9.00;93.60;;;;;;5132055;27;20053;-70
2022/11/28 08:26:12;;;;;;;274.85;134.43;;;8.90;93.60;;;;;;5125754;27;20461;-70
2022/11/28 08:28:39;;;;;;;283.73;140.10;;;8.90;94.60;;;;;;5125527;28;20023;-71
2022/11/28 08:31:10;;;;;;;278.20;135.45;;;8.30;97.00;;;;;;5127664;27;20027;-70
2022/11/28 08:33:36;;;;;;;280.30;130.05;;;8.50;99.90;;;;;;5130452;28;20032;-70
2022/11/28 08:36:04;;;;;;;244.18;123.68;;;8.30;98.80;;;;;;5121277;27;20113;-70
2022/11/28 08:38:33;;;;;;;235.82;113.93;;;7.80;99.90;;;;;;5123952;27;20022;-71
2022/11/28 08:41:01;;;;;;;223.63;105.55;;;7.90;99.90;;;;;;5112137;27;20039;-71
2022/11/28 08:43:27;;;;;;;195.43;99.07;;;7.90;99.90;;;;;;5136843;27;20025;-72
2022/11/28 08:45:53;;;;;;;190.38;95.53;;;8.30;99.90;;;;;;5131386;27;20110;-72
2022/11/28 08:48:19;;;;;;;202.98;99.15;;;8.80;98.20;;;;;;5128433;27;20027;-71
2022/11/28 08:50:48;;;;;;;217.55;98.65;;;8.60;99.30;;;;;;5112964;27;20042;-71
2022/11/28 08:53:14;;;;;;;169.48;77.32;;;9.00;99.90;;;;;;5128345;27;20038;-71
2022/11/28 08:55:43;;;;;;;169.13;74.07;;;9.30;99.80;;;;;;5133099;27;20049;-71
2022/11/28 08:58:13;;;;;;;162.88;70.47;;;9.80;99.90;;;;;;5136081;27;20023;-71
2022/11/28 09:00:42;;;;;;;102.45;50.80;;;10.20;95.50;;;;;;5132173;27;20524;-71
2022/11/28 09:03:14;;;;;;;100.07;48.30;;;10.50;92.50;;;;;;5137975;27;20026;-72
2022/11/28 09:05:41;;;;;;;104.45;50.22;;;10.90;94.60;;;;;;5138278;27;20098;-71
2022/11/28 09:08:08;;;;;;;106.63;51.05;;;11.10;92.80;;;;;;5133509;27;20035;-72
2022/11/28 09:10:36;;;;;;;105.78;49.13;;;11.00;90.90;;;;;;5135988;27;20049;-72
2022/11/28 09:13:13;;;;;;;98.25;48.72;;;11.30;92.00;;;;;;5128518;27;20030;-72
2022/11/28 09:15:47;;;;;;;106.55;45.17;;;11.70;91.30;;;;;;5131030;27;20092;-71
2022/11/28 09:18:14;;;;;;;72.93;36.85;;;11.40;87.80;;;;;;5127344;27;20057;-71
2022/11/28 09:20:44;;;;;;;75.47;37.55;;;11.60;86.20;;;;;;5133169;27;20019;-72
2022/11/28 09:23:11;;;;;;;87.15;38.38;;;11.50;85.70;;;;;;5132409;27;20030;-72
2022/11/28 09:25:38;;;;;;;81.22;39.00;;;11.70;86.10;;;;;;5135754;27;20052;-72
2022/11/28 09:28:05;;;;;;;74.55;37.13;;;12.40;81.10;;;;;;5131946;27;20427;-72
2022/11/28 09:30:31;;;;;;;73.75;34.08;;;12.80;78.40;;;;;;5129649;27;20106;-73
2022/11/28 09:32:57;;;;;;;63.40;33.90;;;13.20;77.30;;;;;;5136626;27;20019;-72
2022/11/28 09:35:23;;;;;;;81.25;38.90;;;12.70;70.30;;;;;;5130455;27;20533;-72
2022/11/28 09:37:49;;;;;;;73.68;35.00;;;12.40;74.60;;;;;;5130557;27;20487;-69
2022/11/28 09:40:32;;;;;;;56.63;30.13;;;12.40;77.90;;;;;;5127388;27;20053;-69
2022/11/28 09:43:01;;;;;;;68.80;33.40;;;13.10;77.70;;;;;;5127703;27;20027;-69
2022/11/28 09:45:30;;;;;;;88.78;35.90;;;13.40;70.80;;;;;;5137477;27;20059;-69
2022/11/28 09:48:35;;;;;;;64.28;32.90;;;13.80;70.40;;;;;;5129132;27;20043;-69
2022/11/28 09:51:33;;;;;;;66.00;29.83;;;14.40;67.40;;;;;;5104430;27;20049;-69
2022/11/28 09:54:05;;;;;;;71.78;32.78;;;14.60;64.40;;;;;;5102691;27;20043;-68
2022/11/28 09:56:31;;;;;;;63.60;32.92;;;14.30;62.10;;;;;;5126631;27;20019;-69
2022/11/28 09:59:02;;;;;;;76.68;32.85;;;14.40;64.20;;;;;;5136137;27;20034;-69
2022/11/28 10:01:36;;;;;;;54.70;27.15;;;14.30;63.30;;;;;;5119093;27;20342;-69
2022/11/28 10:04:16;;;;;;;45.22;23.42;;;14.80;61.30;;;;;;5137421;27;20027;-69
2022/11/28 10:06:59;;;;;;;50.55;23.77;;;14.80;59.90;;;;;;5137036;27;20031;-69
2022/11/28 10:10:19;;;;;;;43.95;23.73;;;14.90;58.40;;;;;;5135578;27;20069;-69
2022/11/28 10:13:43;;;;;;;47.70;24.75;;;14.10;56.70;;;;;;5105491;27;20051;-69
2022/11/28 10:16:46;;;;;;;41.08;21.60;;;14.10;60.00;;;;;;5124265;27;20500;-69
2022/11/28 10:19:36;;;;;;;42.78;22.02;;;13.60;59.60;;;;;;5130272;27;20023;-69
2022/11/28 10:22:27;;;;;;;53.38;24.30;;;13.80;59.90;;;;;;5132968;27;20456;-69
2022/11/28 10:25:10;;;;;;;38.17;21.27;;;13.10;60.50;;;;;;5127303;27;20488;-69
2022/11/28 10:27:55;;;;;;;38.92;20.90;;;12.80;60.90;;;;;;5131681;27;20031;-69
2022/11/28 10:30:46;;;;;;;41.40;21.75;;;13.40;61.60;;;;;;5124773;27;20485;-69
2022/11/28 10:33:27;;;;;;;46.20;24.90;;;13.60;60.00;;;;;;5129450;27;20027;-69
2022/11/28 10:35:57;;;;;;;58.75;24.73;;;14.50;60.20;;;;;;5135973;27;20020;-69
2022/11/28 10:38:26;;;;;;;44.30;22.77;;;15.20;57.70;;;;;;5116246;27;20031;-69
2022/11/28 10:40:59;;;;;;;37.72;19.63;;;15.30;56.70;;;;;;5131799;27;20031;-69
2022/11/28 10:43:37;;;;;;;47.65;20.25;;;16.00;57.60;;;;;;5131689;27;20542;-69
2022/11/28 10:46:21;;;;;;;35.53;18.25;;;15.50;54.90;;;;;;5127842;27;20468;-69
2022/11/28 10:49:25;;;;;;;37.47;19.05;;;15.20;53.60;;;;;;5124119;27;20155;-69
2022/11/28 10:52:03;;;;;;;38.20;19.50;;;16.00;52.00;;;;;;5119927;27;20032;-69
2022/11/28 10:55:09;;;;;;;40.05;20.23;;;16.80;49.80;;;;;;5116353;28;20493;-69
2022/11/28 10:58:07;;;;;;;40.50;20.80;;;16.40;49.70;;;;;;5087270;28;20040;-69
2022/11/28 11:00:34;;;;;;;66.30;25.98;;;15.60;49.70;;;;;;5131014;27;20031;-68
2022/11/28 11:03:02;;;;;;;45.78;23.88;;;15.90;51.60;;;;;;5123826;27;20027;-68
2022/11/28 11:05:39;;;;;;;36.38;19.33;;;15.90;51.90;;;;;;5126455;27;20034;-68
2022/11/28 11:08:31;;;;;;;38.00;19.92;;;16.50;49.00;;;;;;5131661;27;20032;-68
2022/11/28 11:11:08;;;;;;;48.03;22.30;;;16.80;48.20;;;;;;5132842;27;20358;-68
2022/11/28 11:13:54;;;;;;;42.45;23.17;;;17.70;47.40;;;;;;5125275;27;20035;-68
2022/11/28 11:16:54;;;;;;;51.95;22.50;;;17.40;47.60;;;;;;5118533;27;20039;-69
2022/11/28 11:19:31;;;;;;;38.10;21.13;;;17.80;46.80;;;;;;5111074;27;20038;-69
2022/11/28 11:22:06;;;;;;;35.33;20.38;;;17.80;46.70;;;;;;5125957;27;20068;-69
2022/11/28 11:24:38;;;;;;;31.55;18.23;;;18.70;43.80;;;;;;5134087;27;20037;-69
2022/11/28 11:27:13;;;;;;;33.30;16.38;;;19.30;42.60;;;;;;5134898;27;20469;-69
2022/11/28 11:29:39;;;;;;;46.97;20.30;;;18.60;41.00;;;;;;5123450;27;20023;-69
2022/11/28 11:32:28;;;;;;;38.72;18.83;;;18.10;43.30;;;;;;5135262;27;20083;-69
2022/11/28 11:35:00;;;;;;;31.00;17.63;;;17.30;42.70;;;;;;5131141;27;20027;-68
2022/11/28 11:37:36;;;;;;;43.03;17.55;;;17.40;44.20;;;;;;5126503;27;20036;-69
2022/11/28 11:40:22;;;;;;;35.65;16.17;;;18.10;41.50;;;;;;5121107;27;20023;-69
2022/11/28 11:42:59;;;;;;;33.13;16.50;;;17.40;41.50;;;;;;5132511;27;20019;-69
2022/11/28 11:45:33;;;;;;;29.48;14.52;;;16.20;44.20;;;;;;5134614;27;20019;-69
2022/11/28 11:48:01;;;;;;;24.17;13.73;;;15.20;44.40;;;;;;5120453;27;20407;-69
2022/11/28 11:50:29;;;;;;;35.13;16.40;;;16.00;44.10;;;;;;5113487;28;20023;-69
2022/11/28 11:53:13;;;;;;;28.10;15.05;;;16.30;44.80;;;;;;5134444;28;20023;-69
2022/11/28 11:55:48;;;;;;;36.13;17.73;;;15.70;44.70;;;;;;5125025;27;20027;-69
2022/11/28 11:58:20;;;;;;;30.80;15.70;;;16.20;45.50;;;;;;5135038;27;20099;-69
2022/11/28 12:00:46;;;;;;;45.10;16.58;;;15.60;44.20;;;;;;5140300;27;20042;-69
2022/11/28 12:03:38;;;;;;;24.98;12.00;;;15.40;45.90;;;;;;5149553;27;20031;-69
2022/11/28 12:06:16;;;;;;;20.20;11.95;;;15.40;44.10;;;;;;5120227;27;20039;-69
2022/11/28 12:08:49;;;;;;;23.02;12.52;;;15.50;43.20;;;;;;5124090;27;20034;-70
2022/11/28 12:11:40;;;;;;;28.00;13.75;;;15.20;43.50;;;;;;5129503;27;20058;-69
2022/11/28 12:14:27;;;;;;;24.80;12.10;;;15.40;43.60;;;;;;5117696;27;20035;-68
2022/11/28 12:16:57;;;;;;;18.65;11.90;;;15.40;43.70;;;;;;5136024;27;20027;-69
2022/11/28 12:19:51;;;;;;;20.60;12.15;;;16.10;43.70;;;;;;5133541;27;20488;-69
2022/11/28 12:22:38;;;;;;;39.53;14.43;;;16.00;43.20;;;;;;5135989;27;20023;-69
2022/11/28 12:25:14;;;;;;;21.20;11.50;;;16.40;43.10;;;;;;5136613;27;20019;-69
2022/11/28 12:28:18;;;;;;;24.45;13.38;;;15.90;42.00;;;;;;5112499;27;20030;-69
2022/11/28 12:31:17;;;;;;;37.50;16.88;;;15.20;44.00;;;;;;5127612;27;20123;-69
2022/11/28 12:34:16;;;;;;;44.90;20.38;;;15.10;46.20;;;;;;5121586;27;20061;-69
2022/11/28 12:36:57;;;;;;;36.83;18.95;;;15.10;46.80;;;;;;5120927;27;20107;-68
2022/11/28 12:39:42;;;;;;;;;;;16.30;46.10;;;;;;5137053;27;20465;-68
2022/11/28 12:42:23;;;;;;;32.00;18.20;;;16.70;44.70;;;;;;5138917;27;19908;-69
2022/11/28 12:45:00;;;;;;;;;;;17.30;44.50;;;;;;5138539;27;20560;-69
2022/11/28 12:47:48;;;;;;;31.35;16.88;;;17.40;42.60;;;;;;5132533;27;20120;-68
2022/11/28 12:50:20;;;;;;;33.20;17.77;;;17.50;43.90;;;;;;5132231;27;20066;-69
2022/11/28 12:53:15;;;;;;;42.10;19.33;;;16.50;42.80;;;;;;5129805;27;20035;-69
2022/11/28 12:55:55;;;;;;;44.42;18.90;;;16.50;43.60;;;;;;5125429;27;20031;-69
2022/11/28 12:58:35;;;;;;;37.53;19.63;;;16.20;44.70;;;;;;5136255;27;20027;-68
2022/11/28 13:01:38;;;;;;;37.77;18.87;;;15.30;44.20;;;;;;5125943;27;20027;-68